Time;durP1;ratioP1;P1;durP2;ratioP2;P2;SDS_P1;SDS_P2;PMS_P1;PMS_P2;Temp;Humidity;BMP_temperature;BMP_pressure;BME280_temperature;BME280_humidity;BME280_pressure;Samples;Min_cycle;Max_cycle;Signal;HPM_P1;HPM_P2
2021/08/26 00:06:18;;;;;;;3.97;2.53;;;;;;;16.41;48.10;101177.88;8001056;28;20029;-68
2021/08/26 00:10:10;;;;;;;6.93;2.95;;;;;;;16.36;48.16;101167.66;7988009;28;20033;-67
2021/08/26 00:14:01;;;;;;;5.28;2.58;;;;;;;16.39;48.12;101175.34;7989871;28;20049;-68
2021/08/26 00:17:52;;;;;;;3.60;2.33;;;;;;;16.33;48.21;101161.75;7990514;28;20041;-68
2021/08/26 00:21:43;;;;;;;3.47;2.65;;;;;;;16.34;48.50;101160.81;7990438;28;20037;-67
2021/08/26 00:25:35;;;;;;;2.78;2.20;;;;;;;16.28;48.55;101170.13;7989609;28;20025;-67
2021/08/26 00:29:26;;;;;;;3.20;2.15;;;;;;;16.22;48.62;101149.44;7991720;28;20061;-66
2021/08/26 00:33:25;;;;;;;2.65;1.90;;;;;;;16.17;48.69;101149.81;7980817;28;20033;-69
2021/08/26 00:37:15;;;;;;;2.78;2.17;;;;;;;16.13;49.02;101140.47;7992072;28;20037;-67
2021/08/26 00:41:06;;;;;;;3.00;2.22;;;;;;;16.16;49.12;101140.19;7992371;28;20037;-67
2021/08/26 00:44:56;;;;;;;3.03;2.08;;;;;;;16.16;49.19;101128.78;7990382;28;20108;-67
2021/08/26 00:48:48;;;;;;;3.38;1.80;;;;;;;16.11;49.30;101120.34;7981725;28;20041;-67
2021/08/26 00:52:39;;;;;;;4.22;1.92;;;;;;;16.08;49.36;101120.59;7988849;28;20449;-68
2021/08/26 00:56:30;;;;;;;4.05;1.90;;;;;;;16.09;49.49;101122.25;7990547;28;20255;-68
2021/08/26 01:00:20;;;;;;;2.53;2.00;;;;;;;16.05;49.66;101121.69;7990655;28;20034;-67
2021/08/26 01:05:03;;;;;;;3.40;2.00;;;;;;;15.99;49.92;101122.22;7990263;28;20564;-66
2021/08/26 01:09:06;;;;;;;2.35;1.83;;;;;;;15.98;50.01;101112.59;7982631;28;20041;-67
2021/08/26 01:12:59;;;;;;;3.25;2.03;;;;;;;16.00;50.31;101109.78;7990315;28;20037;-67
2021/08/26 01:16:49;;;;;;;1.63;1.50;;;;;;;15.95;50.26;101093.47;7986987;28;20041;-68
2021/08/26 01:20:40;;;;;;;3.05;2.20;;;;;;;15.95;50.06;101093.47;7996148;28;20033;-67
2021/08/26 01:24:33;;;;;;;2.80;1.90;;;;;;;15.97;50.43;101089.72;7996016;28;20039;-67
2021/08/26 01:28:24;;;;;;;2.80;1.70;;;;;;;15.98;50.71;101088.75;7995980;28;20113;-67
2021/08/26 01:32:19;;;;;;;2.58;1.80;;;;;;;15.94;50.73;101075.88;7995692;28;20049;-68
2021/08/26 01:36:10;;;;;;;2.92;1.67;;;;;;;15.97;50.81;101080.91;7987767;28;20628;-68
2021/08/26 01:40:01;;;;;;;2.88;1.70;;;;;;;15.93;50.79;101066.25;7998636;28;20075;-68
2021/08/26 01:43:51;;;;;;;1.70;1.20;;;;;;;15.96;50.87;101072.13;7992394;28;20090;-67
2021/08/26 01:47:42;;;;;;;1.70;1.45;;;;;;;15.93;51.02;101076.84;7982508;28;20389;-67
2021/08/26 01:51:33;;;;;;;1.50;1.38;;;;;;;15.91;51.14;101081.47;7994057;28;20036;-66
2021/08/26 01:55:24;;;;;;;1.67;1.33;;;;;;;15.93;51.25;101068.91;7999396;28;20030;-68
2021/08/26 01:59:14;;;;;;;1.42;1.25;;;;;;;15.91;51.41;101069.03;7999358;28;20028;-67
2021/08/26 02:03:05;;;;;;;1.42;1.10;;;;;;;15.81;51.61;101052.25;7995282;28;20033;-67
2021/08/26 02:06:55;;;;;;;1.20;1.10;;;;;;;15.88;51.55;101069.28;7994823;28;20033;-67
2021/08/26 02:10:46;;;;;;;1.35;1.10;;;;;;;15.85;51.61;101079.31;7995874;28;20090;-69
2021/08/26 02:14:36;;;;;;;1.00;0.82;;;;;;;15.85;51.70;101085.47;7995164;28;20032;-67
2021/08/26 02:18:27;;;;;;;1.70;1.27;;;;;;;15.87;51.75;101086.16;7974329;28;20021;-67
2021/08/26 02:22:18;;;;;;;4.13;1.00;;;;;;;15.85;51.47;101082.81;7992474;28;20041;-67
2021/08/26 02:26:08;;;;;;;1.58;1.10;;;;;;;15.75;51.48;101060.72;7999521;28;20060;-68
2021/08/26 02:29:59;;;;;;;2.95;1.00;;;;;;;15.82;51.49;101074.28;7978538;28;20037;-68
2021/08/26 02:33:49;;;;;;;2.30;1.35;;;;;;;15.77;51.63;101074.69;7999352;28;20071;-67
2021/08/26 02:37:40;;;;;;;1.38;1.05;;;;;;;15.75;51.50;101067.84;7990362;28;20845;-67
2021/08/26 02:41:30;;;;;;;2.03;1.17;;;;;;;15.70;51.54;101066.41;8000666;28;20035;-67
2021/08/26 02:45:21;;;;;;;2.20;1.20;;;;;;;15.70;51.59;101069.06;7991907;28;20036;-69
2021/08/26 02:49:12;;;;;;;6.03;1.50;;;;;;;15.70;51.59;101070.88;7995459;28;20087;-68
2021/08/26 02:53:02;;;;;;;4.63;1.52;;;;;;;15.68;51.75;101076.28;7991609;28;20703;-67
2021/08/26 02:56:53;;;;;;;3.28;1.45;;;;;;;15.68;51.74;101062.19;7993848;28;20029;-66
2021/08/26 03:00:43;;;;;;;4.10;1.52;;;;;;;15.68;51.85;101071.00;7993734;28;20033;-68
2021/08/26 03:04:34;;;;;;;3.58;1.48;;;;;;;15.66;51.76;101066.81;7994084;28;20030;-67
2021/08/26 03:08:25;;;;;;;3.63;1.42;;;;;;;15.65;51.88;101065.13;7995089;28;20047;-67
2021/08/26 03:12:15;;;;;;;4.25;1.75;;;;;;;15.63;51.95;101062.59;7991635;28;20037;-67
2021/08/26 03:16:06;;;;;;;1.63;1.17;;;;;;;15.64;52.01;101066.94;7991330;28;20409;-68
2021/08/26 03:19:57;;;;;;;4.88;1.38;;;;;;;15.63;52.12;101069.69;8004926;28;20029;-68
2021/08/26 03:23:47;;;;;;;2.38;1.40;;;;;;;15.63;52.15;101059.09;7978053;28;20102;-68
2021/08/26 03:27:38;;;;;;;3.17;1.60;;;;;;;15.62;52.31;101070.69;7998245;28;20026;-67
2021/08/26 03:31:29;;;;;;;2.95;1.50;;;;;;;15.61;52.25;101064.53;7991427;28;20036;-68
2021/08/26 03:35:19;;;;;;;3.08;1.30;;;;;;;15.60;52.27;101070.81;7991996;28;20066;-67
2021/08/26 03:39:11;;;;;;;2.53;1.40;;;;;;;15.60;52.21;101069.97;7999920;28;20063;-67
2021/08/26 03:43:02;;;;;;;3.92;1.50;;;;;;;15.58;52.55;101071.91;7995500;28;20557;-67
2021/08/26 03:46:53;;;;;;;4.38;1.70;;;;;;;15.53;52.61;101061.69;7991305;28;20056;-67
2021/08/26 03:50:43;;;;;;;2.10;1.40;;;;;;;15.50;52.72;101050.53;7992990;28;20059;-68
2021/08/26 03:54:36;;;;;;;2.15;1.45;;;;;;;15.53;52.81;101061.69;7988928;28;20024;-67
2021/08/26 03:58:26;;;;;;;5.80;2.10;;;;;;;15.54;52.97;101062.53;7989852;28;20144;-67
2021/08/26 04:02:17;;;;;;;1.88;1.40;;;;;;;15.53;52.75;101059.06;7996908;28;20045;-68
2021/08/26 04:06:08;;;;;;;2.15;1.40;;;;;;;15.53;52.97;101059.06;7987447;28;20025;-66
2021/08/26 04:09:59;;;;;;;3.55;1.75;;;;;;;15.55;52.98;101051.81;7991682;28;20036;-68
2021/08/26 04:13:50;;;;;;;4.20;1.65;;;;;;;15.56;53.13;101050.00;7996784;28;20375;-68
2021/08/26 04:17:41;;;;;;;1.70;1.27;;;;;;;15.54;53.01;101055.41;7988456;28;20478;-68
2021/08/26 04:21:32;;;;;;;3.45;1.73;;;;;;;15.55;53.17;101057.09;7983288;28;20108;-67
2021/08/26 04:25:22;;;;;;;3.65;1.70;;;;;;;15.55;53.28;101053.59;7981640;28;20495;-68
2021/08/26 04:29:13;;;;;;;2.78;1.67;;;;;;;15.53;53.23;101045.81;7988147;28;20044;-68
2021/08/26 04:33:04;;;;;;;3.15;1.80;;;;;;;15.51;53.47;101050.38;7988063;28;20076;-67
2021/08/26 04:36:55;;;;;;;3.70;1.80;;;;;;;15.52;53.16;101054.72;7993896;28;20037;-67
2021/08/26 04:40:45;;;;;;;2.72;1.85;;;;;;;15.42;53.24;101032.63;7990714;28;20510;-67
2021/08/26 04:44:36;;;;;;;6.75;2.40;;;;;;;15.45;53.55;101052.72;7992961;28;20025;-68
2021/08/26 04:48:26;;;;;;;6.15;1.90;;;;;;;15.43;53.17;101041.41;7995489;28;20033;-67
2021/08/26 04:52:17;;;;;;;4.32;2.00;;;;;;;15.42;53.27;101037.91;7988623;28;20576;-67
2021/08/26 04:56:08;;;;;;;6.88;1.65;;;;;;;15.42;53.38;101037.06;7995129;28;20037;-68
2021/08/26 05:00:00;;;;;;;3.30;1.60;;;;;;;15.37;53.37;101037.47;8002256;28;20059;-68
2021/08/26 05:03:50;;;;;;;4.65;1.85;;;;;;;15.41;53.26;101048.66;7995962;28;20037;-66
2021/08/26 05:07:41;;;;;;;5.38;1.85;;;;;;;15.41;53.18;101038.91;7996152;28;20029;-66
2021/08/26 05:11:32;;;;;;;5.70;1.80;;;;;;;15.39;53.29;101046.13;7994113;28;20036;-66
2021/08/26 05:15:23;;;;;;;3.53;1.73;;;;;;;15.39;53.34;101047.91;7996144;28;20092;-66
2021/08/26 05:19:13;;;;;;;3.70;1.65;;;;;;;15.35;53.41;101046.50;7999904;28;20108;-66
2021/08/26 05:23:04;;;;;;;7.60;1.90;;;;;;;15.38;53.42;101057.66;7999152;28;20446;-65
2021/08/26 05:26:55;;;;;;;5.63;1.55;;;;;;;15.38;53.62;101068.25;7996957;28;20037;-67
2021/08/26 05:30:45;;;;;;;8.20;1.95;;;;;;;15.34;53.39;101055.41;7996129;28;20481;-66
2021/08/26 05:34:36;;;;;;;8.70;1.83;;;;;;;15.38;53.55;101064.75;7993841;28;20029;-66
2021/08/26 05:38:27;;;;;;;7.72;1.75;;;;;;;15.38;53.37;101060.31;7988207;28;20663;-66
2021/08/26 05:42:17;;;;;;;4.53;1.67;;;;;;;15.39;53.47;101066.44;7978437;28;20033;-67
2021/08/26 05:46:08;;;;;;;6.75;1.90;;;;;;;15.38;53.40;101059.47;7974690;28;20043;-67
2021/08/26 05:49:58;;;;;;;5.65;1.60;;;;;;;15.37;53.46;101066.59;7979458;28;20398;-66
2021/08/26 05:53:49;;;;;;;4.13;1.30;;;;;;;15.35;53.44;101063.22;8008245;28;20119;-66
2021/08/26 05:57:40;;;;;;;6.55;1.88;;;;;;;15.38;53.57;101073.56;7979962;28;20034;-67
2021/08/26 06:01:30;;;;;;;6.70;1.58;;;;;;;15.39;53.48;101077.88;7973955;28;20033;-67
2021/08/26 06:05:21;;;;;;;4.50;2.03;;;;;;;15.39;53.62;101071.75;7976870;28;20704;-67
2021/08/26 06:09:11;;;;;;;6.80;1.73;;;;;;;15.36;53.63;101070.22;7981997;28;20067;-67
2021/08/26 06:13:03;;;;;;;5.00;1.73;;;;;;;15.39;53.75;101063.81;7978332;28;20391;-67
2021/08/26 06:16:54;;;;;;;6.15;2.08;;;;;;;15.37;53.79;101060.47;7977732;28;20033;-66
2021/08/26 06:20:44;;;;;;;5.28;2.13;;;;;;;15.33;53.66;101051.09;7995513;28;20047;-66
2021/08/26 06:24:35;;;;;;;8.18;2.22;;;;;;;15.41;53.82;101069.81;7992607;28;20086;-65
2021/08/26 06:28:25;;;;;;;5.07;1.70;;;;;;;15.40;53.71;101063.69;7995082;28;20533;-66
2021/08/26 06:32:17;;;;;;;5.00;1.88;;;;;;;15.38;53.77;101060.31;7980360;28;20038;-67
2021/08/26 06:36:09;;;;;;;3.65;1.60;;;;;;;15.37;53.94;101061.31;7992199;28;20037;-67
2021/08/26 06:40:00;;;;;;;12.13;2.65;;;;;;;15.41;53.77;101065.38;7985651;28;20029;-67
2021/08/26 06:43:51;;;;;;;5.93;2.17;;;;;;;15.44;53.85;101070.41;7991796;28;20029;-67
2021/08/26 06:47:41;;;;;;;6.90;1.67;;;;;;;15.44;53.84;101065.09;7992394;28;20030;-67
2021/08/26 06:51:32;;;;;;;7.95;1.90;;;;;;;15.45;53.92;101074.75;7977230;28;20500;-67
2021/08/26 06:55:23;;;;;;;11.88;2.60;;;;;;;15.46;53.84;101062.31;7993219;28;20037;-67
2021/08/26 06:59:13;;;;;;;5.63;2.25;;;;;;;15.48;53.82;101057.75;7989622;28;20385;-67
2021/08/26 07:03:04;;;;;;;3.55;1.98;;;;;;;15.47;54.09;101067.50;7992117;28;20033;-68
2021/08/26 07:06:55;;;;;;;4.40;2.10;;;;;;;15.48;53.88;101069.19;7955141;28;20029;-68
2021/08/26 07:10:46;;;;;;;3.75;1.52;;;;;;;15.51;53.89;101084.81;7965557;28;20493;-68
2021/08/26 07:14:36;;;;;;;5.95;1.95;;;;;;;15.54;53.72;101084.53;7965012;28;20036;-68
2021/08/26 07:18:28;;;;;;;6.50;2.40;;;;;;;15.58;53.71;101085.16;7964425;28;20425;-68
2021/08/26 07:22:19;;;;;;;10.25;2.13;;;;;;;15.60;53.94;101086.69;7967457;28;20037;-68
2021/08/26 07:26:10;;;;;;;7.65;2.33;;;;;;;15.66;53.86;101086.16;7964595;28;20076;-68
2021/08/26 07:30:00;;;;;;;10.05;1.70;;;;;;;15.75;53.74;101078.44;7964598;28;20045;-67
2021/08/26 07:33:51;;;;;;;3.97;1.48;;;;;;;15.83;53.66;101070.69;7966925;28;20029;-66
2021/08/26 07:37:41;;;;;;;4.85;2.35;;;;;;;15.91;53.69;101073.50;7961272;28;20034;-67
2021/08/26 07:41:32;;;;;;;3.13;1.33;;;;;;;15.98;53.48;101085.25;7966301;28;20037;-67
2021/08/26 07:45:23;;;;;;;5.72;1.77;;;;;;;16.06;53.54;101078.34;7966998;28;20040;-67
2021/08/26 07:49:13;;;;;;;9.60;2.35;;;;;;;16.20;53.62;101077.19;7965607;28;20030;-67
2021/08/26 07:53:04;;;;;;;6.05;1.88;;;;;;;16.47;53.33;101077.41;7959940;28;20071;-66
2021/08/26 07:56:54;;;;;;;6.70;1.98;;;;;;;17.03;52.81;101074.25;7962516;28;20034;-66
2021/08/26 08:00:45;;;;;;;9.60;2.47;;;;;;;18.02;52.01;101065.91;7965607;28;20044;-67
2021/08/26 08:04:36;;;;;;;3.85;1.50;;;;;;;18.57;51.60;101063.31;7963995;28;20041;-66
2021/08/26 08:08:27;;;;;;;7.68;2.72;;;;;;;18.71;51.47;101062.81;7963064;28;20032;-67
2021/08/26 08:12:17;;;;;;;8.32;2.33;;;;;;;18.95;51.03;101071.06;7967744;28;20068;-67
2021/08/26 08:16:08;;;;;;;8.55;2.13;;;;;;;19.02;50.47;101061.47;7964310;28;20034;-67
2021/08/26 08:19:59;;;;;;;6.25;1.92;;;;;;;19.25;50.75;101057.41;7962827;28;20029;-67
2021/08/26 08:23:49;;;;;;;8.18;2.28;;;;;;;19.30;50.40;101059.63;7962336;28;20452;-67
2021/08/26 08:27:40;;;;;;;6.10;2.05;;;;;;;19.17;50.48;101057.34;7952699;28;20882;-67
2021/08/26 08:31:31;;;;;;;6.60;2.33;;;;;;;19.00;50.39;101060.81;7961353;28;20025;-67
2021/08/26 08:35:22;;;;;;;9.07;1.65;;;;;;;18.75;50.35;101049.06;7958104;28;20036;-67
2021/08/26 08:39:13;;;;;;;4.65;1.67;;;;;;;18.55;50.53;101052.00;7930803;28;20056;-67
2021/08/26 08:43:03;;;;;;;5.88;1.50;;;;;;;18.30;50.05;101057.00;7963847;28;20034;-67
2021/08/26 08:46:58;;;;;;;3.70;1.33;;;;;;;18.04;50.25;101057.78;7962629;28;20036;-67
2021/08/26 08:50:50;;;;;;;5.22;1.48;;;;;;;17.95;50.28;101072.78;7962377;28;20030;-67
2021/08/26 08:54:40;;;;;;;2.22;0.93;;;;;;;18.05;50.08;101065.63;7963750;28;20049;-67
2021/08/26 08:58:37;;;;;;;2.85;1.00;;;;;;;18.18;50.43;101058.16;7964423;28;20037;-67
2021/08/26 09:02:28;;;;;;;3.53;1.40;;;;;;;18.15;50.50;101060.28;7963694;28;20087;-67
2021/08/26 09:06:18;;;;;;;3.05;1.30;;;;;;;18.19;50.49;101065.13;7959085;28;20097;-67
2021/08/26 09:10:09;;;;;;;3.65;1.52;;;;;;;18.15;50.37;101054.97;7965611;28;20045;-67
2021/08/26 09:14:08;;;;;;;4.43;1.65;;;;;;;18.26;50.28;101060.09;7964373;28;20040;-67
2021/08/26 09:18:12;;;;;;;4.18;1.20;;;;;;;18.32;50.46;101060.31;7959827;28;20038;-67
2021/08/26 09:22:06;;;;;;;5.93;1.45;;;;;;;18.38;50.04;101064.22;7962877;28;20183;-67
2021/08/26 09:26:22;;;;;;;4.78;1.50;;;;;;;18.35;49.95;101057.41;7961784;28;20048;-67
2021/08/26 09:30:16;;;;;;;7.65;1.48;;;;;;;18.39;50.34;101044.63;7968984;28;20505;-67
2021/08/26 09:34:12;;;;;;;3.00;1.55;;;;;;;18.52;50.70;101049.63;7967571;28;20025;-67
2021/08/26 09:38:04;;;;;;;6.55;1.73;;;;;;;18.60;50.49;101055.06;7966493;28;20057;-67
2021/08/26 09:42:00;;;;;;;2.95;1.23;;;;;;;18.62;50.13;101051.25;7962834;28;20040;-67
2021/08/26 09:45:50;;;;;;;6.15;2.00;;;;;;;18.65;50.48;101044.78;7966886;28;20067;-67
2021/08/26 09:49:41;;;;;;;5.78;1.70;;;;;;;18.77;50.09;101055.06;7969112;28;20037;-67
2021/08/26 09:53:34;;;;;;;5.13;1.50;;;;;;;18.81;50.37;101052.97;7968470;28;20094;-67
2021/08/26 09:57:36;;;;;;;4.82;1.67;;;;;;;18.70;49.97;101061.97;7966224;28;20623;-67
2021/08/26 10:01:27;;;;;;;2.40;1.42;;;;;;;18.53;50.28;101059.28;7968683;28;20041;-67
2021/08/26 10:05:18;;;;;;;3.47;1.30;;;;;;;18.44;50.02;101061.84;7966933;28;20681;-66
2021/08/26 10:09:08;;;;;;;4.80;1.45;;;;;;;18.42;50.04;101060.28;7964772;28;20041;-67
2021/08/26 10:13:00;;;;;;;7.45;2.45;;;;;;;18.44;49.95;101053.00;7969736;28;20067;-68
2021/08/26 10:16:51;;;;;;;4.03;1.83;;;;;;;18.45;50.26;101057.34;7964126;28;20037;-68
2021/08/26 10:20:42;;;;;;;6.00;1.52;;;;;;;18.48;50.01;101051.72;7967187;28;20765;-66
2021/08/26 10:24:33;;;;;;;8.07;1.90;;;;;;;18.51;50.35;101053.28;7967304;28;20853;-68
2021/08/26 10:28:25;;;;;;;3.17;1.33;;;;;;;18.61;50.32;101060.22;7968532;28;20025;-67
2021/08/26 10:32:17;;;;;;;2.50;1.10;;;;;;;18.69;50.47;101059.47;7966052;28;20033;-67
2021/08/26 10:36:13;;;;;;;3.38;1.30;;;;;;;18.57;50.16;101058.00;7967424;28;20069;-68
2021/08/26 10:40:28;;;;;;;7.63;1.83;;;;;;;18.39;50.22;101069.41;7967190;28;20038;-68
2021/08/26 10:44:18;;;;;;;4.90;1.40;;;;;;;18.28;49.98;101060.75;7966299;28;20045;-67
2021/08/26 10:48:12;;;;;;;3.20;1.20;;;;;;;18.22;50.08;101062.22;7967950;28;20464;-67
2021/08/26 10:52:02;;;;;;;4.45;1.23;;;;;;;18.21;50.38;101055.22;7969017;28;20052;-66
2021/08/26 10:55:56;;;;;;;2.42;1.20;;;;;;;18.22;50.13;101056.03;7966679;28;20030;-68
2021/08/26 10:59:46;;;;;;;4.90;1.63;;;;;;;18.19;50.12;101062.47;7969022;28;20068;-67
2021/08/26 11:03:46;;;;;;;2.65;1.55;;;;;;;18.16;50.24;101062.78;7967363;28;20520;-67
2021/08/26 11:07:37;;;;;;;4.07;1.38;;;;;;;18.15;50.06;101054.97;7962033;28;20021;-67
2021/08/26 11:11:28;;;;;;;2.80;1.38;;;;;;;18.18;50.23;101066.16;7966592;28;20037;-67
2021/08/26 11:15:25;;;;;;;3.17;1.23;;;;;;;18.17;50.25;101058.28;7966321;28;20051;-67
2021/08/26 11:19:16;;;;;;;;;;;;;;;18.15;50.34;101068.25;7968277;28;20033;-67
2021/08/26 11:23:09;;;;;;;4.43;1.35;;;;;;;18.31;50.32;101058.69;7963314;28;19952;-67
2021/08/26 11:27:24;;;;;;;4.43;1.73;;;;;;;18.43;50.40;101067.31;7964361;28;20049;-67
2021/08/26 11:31:16;;;;;;;5.55;1.50;;;;;;;18.54;50.46;101072.44;7964409;28;20124;-67
2021/08/26 11:35:06;;;;;;;3.15;1.20;;;;;;;18.63;50.15;101057.41;7965210;28;20501;-67
2021/08/26 11:38:57;;;;;;;5.15;1.90;;;;;;;18.74;50.41;101058.03;7963060;28;20037;-68
2021/08/26 11:42:49;;;;;;;5.32;1.70;;;;;;;18.85;50.34;101055.16;7968724;28;20053;-68
2021/08/26 11:46:40;;;;;;;4.10;1.30;;;;;;;18.86;50.22;101054.16;7948465;28;20029;-68
2021/08/26 11:50:38;;;;;;;4.03;1.40;;;;;;;18.84;50.31;101053.50;7966314;28;20390;-67
2021/08/26 11:54:36;;;;;;;2.67;1.27;;;;;;;18.76;49.93;101055.22;7964426;28;20025;-67
2021/08/26 11:58:30;;;;;;;4.35;1.60;;;;;;;18.73;50.02;101044.91;7964059;28;20071;-68
2021/08/26 12:02:23;;;;;;;1.88;1.33;;;;;;;18.76;50.33;101047.25;7964444;28;20573;-68
2021/08/26 12:06:14;;;;;;;1.52;1.02;;;;;;;18.85;50.43;101051.69;7962293;28;20030;-68
2021/08/26 12:10:17;;;;;;;1.98;0.90;;;;;;;18.91;49.79;101051.91;7964063;28;20033;-68
2021/08/26 12:14:09;;;;;;;1.90;0.98;;;;;;;18.92;49.83;101048.25;7964228;28;20025;-68
2021/08/26 12:18:05;;;;;;;2.90;1.20;;;;;;;18.92;49.42;101048.25;7964578;28;20033;-67
2021/08/26 12:21:55;;;;;;;3.75;1.20;;;;;;;18.92;49.21;101045.59;7964705;28;20041;-67
2021/08/26 12:26:21;;;;;;;3.47;0.88;;;;;;;18.92;49.57;101034.09;7964946;28;20170;-68
2021/08/26 12:30:12;;;;;;;2.45;1.10;;;;;;;19.03;49.73;101038.34;7963413;28;20038;-68
2021/08/26 12:34:05;;;;;;;4.32;1.40;;;;;;;19.10;49.00;101040.25;7944882;28;20092;-68
2021/08/26 12:38:00;;;;;;;2.22;1.20;;;;;;;19.16;49.25;101046.84;7961155;28;20041;-67
2021/08/26 12:42:15;;;;;;;2.55;0.90;;;;;;;19.13;49.14;101047.97;7961216;28;20486;-68
2021/08/26 12:46:09;;;;;;;2.15;0.90;;;;;;;19.10;48.56;101044.78;7962735;28;20030;-68
2021/08/26 12:50:00;;;;;;;1.65;0.90;;;;;;;19.05;48.82;101047.03;7965347;28;20037;-67
2021/08/26 12:54:03;;;;;;;1.85;1.23;;;;;;;18.99;48.90;101040.50;7963339;28;20021;-67
2021/08/26 12:58:13;;;;;;;4.00;1.30;;;;;;;18.98;48.83;101041.47;7966119;28;20037;-66
2021/08/26 13:02:08;;;;;;;3.13;1.17;;;;;;;19.00;48.58;101036.84;7965490;28;20051;-66
2021/08/26 13:05:59;;;;;;;4.15;1.40;;;;;;;18.97;48.43;101028.34;7967345;28;20708;-67
2021/08/26 13:10:00;;;;;;;1.92;1.25;;;;;;;18.99;48.48;101029.00;7975056;28;20598;-67
2021/08/26 13:13:53;;;;;;;1.83;1.17;;;;;;;18.93;48.49;101020.63;7976868;28;20045;-66
2021/08/26 13:17:44;;;;;;;3.42;1.05;;;;;;;18.93;48.43;101031.28;7973212;28;20152;-66
2021/08/26 13:21:35;;;;;;;4.25;1.05;;;;;;;18.88;48.64;101025.59;7969648;28;20033;-66
2021/08/26 13:25:25;;;;;;;3.08;0.93;;;;;;;18.91;48.67;101037.75;7965737;28;20059;-67
2021/08/26 13:29:16;;;;;;;3.60;1.23;;;;;;;18.94;48.58;101029.44;7972506;28;20494;-68
2021/08/26 13:33:08;;;;;;;3.65;1.30;;;;;;;18.98;48.82;101028.16;7972835;28;20025;-67
2021/08/26 13:36:59;;;;;;;3.45;1.30;;;;;;;18.95;48.62;101028.47;7971503;28;20045;-68
2021/08/26 13:40:50;;;;;;;2.05;0.95;;;;;;;18.86;48.52;101021.38;7970420;28;20045;-67
2021/08/26 13:44:41;;;;;;;2.85;1.52;;;;;;;18.86;48.66;101024.06;7969419;28;20120;-67
2021/08/26 13:48:32;;;;;;;9.10;2.15;;;;;;;18.81;48.69;101011.19;7969405;28;20167;-66
2021/08/26 13:52:23;;;;;;;1.70;1.33;;;;;;;18.86;48.56;101010.75;7966708;28;20090;-66
2021/08/26 13:56:14;;;;;;;3.72;1.23;;;;;;;18.84;48.27;101002.09;7968280;28;20218;-68
2021/08/26 14:00:06;;;;;;;1.83;1.10;;;;;;;18.88;48.83;100996.31;7969835;28;20034;-66
2021/08/26 14:03:56;;;;;;;3.17;1.17;;;;;;;18.95;48.26;100990.38;7968979;28;20117;-67
2021/08/26 14:07:47;;;;;;;5.22;1.40;;;;;;;18.93;48.73;100995.88;7967627;28;20038;-66
2021/08/26 14:11:37;;;;;;;2.83;1.10;;;;;;;18.88;48.60;100985.66;7965998;28;20621;-67
2021/08/26 14:15:28;;;;;;;4.72;1.33;;;;;;;18.89;48.41;100992.63;7968289;28;20033;-67
2021/08/26 14:19:19;;;;;;;1.52;1.10;;;;;;;18.85;48.62;100990.47;7968835;28;20033;-67
2021/08/26 14:23:10;;;;;;;3.35;1.38;;;;;;;18.86;48.37;100989.44;7966033;28;20068;-67
2021/08/26 14:27:01;;;;;;;2.88;1.45;;;;;;;18.84;48.38;100989.63;7966952;28;20037;-67
2021/08/26 14:30:52;;;;;;;2.58;1.23;;;;;;;18.77;48.11;100988.53;7967250;28;20591;-66
2021/08/26 14:34:44;;;;;;;2.08;1.15;;;;;;;18.74;48.34;100983.53;7966298;28;20117;-67
2021/08/26 14:38:34;;;;;;;3.13;1.63;;;;;;;18.70;48.25;100987.47;7964931;28;20057;-67
2021/08/26 14:42:25;;;;;;;2.97;1.52;;;;;;;18.67;48.12;100990.44;7968509;28;20036;-66
2021/08/26 14:46:16;;;;;;;6.50;1.90;;;;;;;18.65;47.95;100980.91;7965486;28;20087;-67
2021/08/26 14:50:07;;;;;;;2.75;1.30;;;;;;;18.63;48.18;100983.75;7968481;28;20045;-66
2021/08/26 14:53:58;;;;;;;3.85;1.42;;;;;;;18.65;47.44;100983.59;7964943;28;20095;-66
2021/08/26 14:57:48;;;;;;;3.25;1.33;;;;;;;18.66;48.24;100979.94;7966866;28;20041;-64
2021/08/26 15:01:39;;;;;;;8.25;2.05;;;;;;;18.65;47.80;100979.09;7965032;28;20033;-66
2021/08/26 15:05:30;;;;;;;13.50;4.70;;;;;;;18.68;47.95;100970.84;7966275;28;20037;-68
2021/08/26 15:09:20;;;;;;;5.20;1.80;;;;;;;18.64;47.44;100971.28;7967090;28;20164;-66
2021/08/26 15:13:11;;;;;;;3.00;1.30;;;;;;;18.54;47.82;100958.03;7966890;28;20076;-66
2021/08/26 15:17:02;;;;;;;4.97;1.45;;;;;;;18.52;47.64;100956.53;7967665;28;20287;-66
2021/08/26 15:20:53;;;;;;;4.13;1.25;;;;;;;18.51;48.04;100949.53;7966450;28;20045;-66
2021/08/26 15:24:43;;;;;;;2.88;1.27;;;;;;;18.51;47.92;100954.84;7964103;28;20159;-65
2021/08/26 15:28:34;;;;;;;4.05;1.35;;;;;;;18.49;47.46;100947.00;7962578;28;20048;-67
2021/08/26 15:32:28;;;;;;;5.40;1.58;;;;;;;18.50;47.54;100943.38;7964706;28;20048;-67
2021/08/26 15:36:22;;;;;;;3.17;1.38;;;;;;;18.49;47.53;100954.16;7965066;28;20033;-66
2021/08/26 15:40:13;;;;;;;4.93;1.67;;;;;;;18.45;47.62;100954.47;7964557;28;20787;-67
2021/08/26 15:44:07;;;;;;;6.53;1.85;;;;;;;18.46;47.90;100952.66;7965330;28;20615;-67
2021/08/26 15:47:57;;;;;;;5.10;1.98;;;;;;;18.46;47.77;100944.66;7963673;28;20481;-67
2021/08/26 15:51:55;;;;;;;3.53;1.70;;;;;;;18.47;47.63;100940.19;7965117;28;20041;-67
2021/08/26 15:55:49;;;;;;;4.15;1.92;;;;;;;18.51;47.75;100939.75;7963655;28;20025;-67
2021/08/26 15:59:54;;;;;;;8.75;1.90;;;;;;;18.56;48.00;100949.94;7966724;28;20037;-66
2021/08/26 16:03:46;;;;;;;6.40;1.67;;;;;;;18.61;47.85;100947.63;7966305;28;20087;-66
2021/08/26 16:07:37;;;;;;;4.47;2.20;;;;;;;18.59;47.98;100936.31;7964335;28;20069;-68
2021/08/26 16:11:27;;;;;;;4.32;1.92;;;;;;;18.62;47.43;100939.50;7967627;28;20044;-67
2021/08/26 16:15:19;;;;;;;4.93;1.60;;;;;;;18.63;47.47;100940.34;7962406;28;20033;-67
2021/08/26 16:19:10;;;;;;;3.95;1.40;;;;;;;18.64;47.13;100939.38;7970997;28;20722;-68
2021/08/26 16:23:01;;;;;;;5.88;1.63;;;;;;;18.67;47.15;100936.38;7963866;28;20033;-67
2021/08/26 16:26:51;;;;;;;7.28;2.15;;;;;;;18.70;47.08;100941.41;7964061;28;20120;-66
2021/08/26 16:30:42;;;;;;;8.18;1.90;;;;;;;18.67;47.40;100947.03;7966820;28;20036;-67
2021/08/26 16:34:33;;;;;;;8.55;2.53;;;;;;;18.64;47.26;100947.34;7965384;28;20227;-67
2021/08/26 16:38:24;;;;;;;6.75;2.17;;;;;;;18.58;46.91;100956.75;7971452;28;20032;-67
2021/08/26 16:42:15;;;;;;;4.65;1.98;;;;;;;18.51;46.95;100952.19;7975447;28;20037;-67
2021/08/26 16:46:06;;;;;;;13.88;2.05;;;;;;;18.45;46.99;100951.81;7973951;28;20045;-66
2021/08/26 16:49:56;;;;;;;4.88;1.95;;;;;;;18.41;47.13;100958.38;7971115;28;20029;-67
2021/08/26 16:53:47;;;;;;;6.68;2.17;;;;;;;18.39;47.39;100972.81;7957528;28;20036;-64
2021/08/26 16:57:38;;;;;;;4.32;2.00;;;;;;;18.35;47.63;100960.81;7971121;28;20040;-66
2021/08/26 17:01:29;;;;;;;4.82;2.08;;;;;;;18.33;47.67;100971.59;7974663;28;20401;-67
2021/08/26 17:05:20;;;;;;;13.82;3.28;;;;;;;18.27;47.43;100974.81;7971838;28;20046;-66
2021/08/26 17:09:10;;;;;;;4.78;2.17;;;;;;;18.19;47.65;100969.41;7975268;28;20570;-65
2021/08/26 17:13:01;;;;;;;7.43;2.40;;;;;;;18.16;47.79;100972.38;7974342;28;20036;-65
2021/08/26 17:16:52;;;;;;;6.13;1.73;;;;;;;18.14;47.89;100978.84;7973481;28;20048;-67
2021/08/26 17:20:45;;;;;;;6.20;2.08;;;;;;;18.11;47.71;100981.81;7976846;28;20048;-66
2021/08/26 17:24:35;;;;;;;7.18;2.22;;;;;;;18.07;47.96;100991.88;7974700;28;20071;-66
2021/08/26 17:28:26;;;;;;;7.20;1.92;;;;;;;18.05;47.93;101003.66;7975769;28;20480;-65
2021/08/26 17:32:17;;;;;;;3.83;1.55;;;;;;;17.97;48.18;101005.22;7975927;28;20029;-66
2021/08/26 17:36:08;;;;;;;7.72;2.88;;;;;;;17.92;48.57;101006.63;7970081;28;20181;-66
2021/08/26 17:39:58;;;;;;;4.05;1.77;;;;;;;17.85;48.75;101008.19;7971339;28;20159;-65
2021/08/26 17:43:49;;;;;;;5.78;2.15;;;;;;;17.79;48.81;101017.56;7974715;28;20045;-66
2021/08/26 17:47:40;;;;;;;4.90;2.10;;;;;;;17.77;49.14;101016.06;7974365;28;20030;-67
2021/08/26 17:51:30;;;;;;;5.43;2.08;;;;;;;17.75;48.60;101010.88;7969585;28;21155;-66
2021/08/26 17:55:21;;;;;;;5.30;1.88;;;;;;;17.70;49.20;101007.81;7966984;28;20044;-66
2021/08/26 17:59:12;;;;;;;6.63;2.03;;;;;;;17.70;49.25;101020.25;7969001;28;20034;-67
2021/08/26 18:03:03;;;;;;;9.23;2.65;;;;;;;17.67;49.74;101029.31;7971320;28;20623;-64